• Join FlightAware (Why Join?)
  • Login
  • US Flag 
03:42AM EDT


 

Airport Tracker/Info


-or-


 

Live Flight TrackerFlight Track Log ✈ AAL270 ✈ 27-Apr-2013 ✈ PHNL - KLAX

Flight Track Log - Related Links

Times and Time Zones

All times are in EDT time to prevent confusion due to time zone crossing. See the AAL270 flight status page for this flight to view local times or setup timezone preferences in your user account.

Time Position Orientation Groundspeed Altitude Reporting Facility
EDT Latitude Longitude Course Direction KTS MPH feet Rate Location/Type
01:23PM 21.3167 -157.9000 75° East 170 196 1,300  Level Honolulu Center
01:24PM 21.2667 -157.8667 148° Southeast 240 276 2,900 1,860 Climbing Honolulu Center
01:25PM 21.2167 -157.8167 137° Southeast 260 299 5,100 2,280 Climbing Honolulu Center
01:26PM 21.2135 -157.5283 108° East  Level FlightAware Approximate
01:26PM 21.1833 -157.7500 118° Southeast 280 322 7,500  Level Honolulu Center
01:27PM 21.1830 -157.3979 100° East  Level FlightAware Approximate
01:27PM 21.1667 -157.6667 102° East 280 322 9,700  Level Honolulu Center
01:28PM 21.1582 -157.2661 105° East  Level FlightAware Approximate
01:28PM 21.1833 -157.5833 78° East 310 357 11,000  Level Honolulu Center
01:29PM 21.1410 -157.1361 75° East  Level FlightAware Approximate
01:29PM 21.2000 -157.4833 80° East 350 403 12,700  Level Honolulu Center
01:30PM 21.2333 -157.3667 73° East 370 426 14,400 1,800 Climbing Honolulu Center
01:31PM 21.2500 -157.2667 80° East 380 437 16,400 1,740 Climbing Honolulu Center
01:32PM 21.2833 -157.1500 73° East 400 460 17,900 1,620 Climbing Honolulu Center
01:33PM 21.3000 -157.0333 81° East 410 472 19,700 1,740 Climbing Honolulu Center
01:34PM 21.3333 -156.9000 75° East 420 483 21,400 1,560 Climbing Honolulu Center
01:35PM 21.3667 -156.7833 73° East 430 495 22,900 1,440 Climbing Honolulu Center
01:36PM 21.3833 -156.6500 82° East 440 506 24,400 1,380 Climbing Honolulu Center
01:37PM 21.4167 -156.5167 75° East 440 506 25,800 1,320 Climbing Honolulu Center
01:38PM 21.4500 -156.3833 75° East 460 529 27,100 1,380 Climbing Honolulu Center
01:39PM 21.4667 -156.2500 82° East 460 529 28,600 1,440 Climbing Honolulu Center
01:40PM 21.5000 -156.1167 75° East 470 541 30,000 1,500 Climbing Honolulu Center
01:41PM 21.5333 -155.9667 77° East 470 541 31,700 1,500 Climbing Honolulu Center
01:42PM 21.5667 -155.8333 75° East 470 541 33,100 1,320 Climbing Honolulu Center
01:43PM 21.5833 -155.7000 82° East 460 529 34,400 1,200 Climbing Honolulu Center
01:44PM 21.6167 -155.5667 75° East 460 529 35,500 1,020 Climbing Honolulu Center
01:45PM 21.6500 -155.4333 75° East 460 529 36,500 720 Climbing Honolulu Center
01:46PM 21.6667 -155.3000 82° East 460 529 37,000 240 Climbing Honolulu Center
01:47PM 21.7000 -155.1667 75° East 460 529 37,000  Level Honolulu Center
01:48PM 21.7333 -155.0333 75° East 460 529 37,000  Level Honolulu Center
01:49PM 21.7500 -154.9000 82° East 450 518 37,000  Level Honolulu Center
01:50PM 21.7833 -154.7667 75° East 450 518 37,000  Level Honolulu Center
01:51PM 21.8000 -154.6333 82° East 450 518 37,000  Level Honolulu Center
01:52PM 21.8333 -154.5167 73° East 440 506 37,000  Level Honolulu Center
01:53PM 21.8500 -154.3833 82° East 450 518 37,000  Level Honolulu Center
01:54PM 21.8833 -154.2500 75° East 440 506 37,000  Level Honolulu Center
01:55PM 21.9167 -154.1167 75° East 440 506 37,000  Level Honolulu Center
01:56PM 21.9333 -154.0000 81° East 440 506 37,000  Level Honolulu Center
01:58PM 21.9636 -153.8472 78° East  Level FlightAware Approximate
02:05PM 22.1451 -152.9158 78° East  Level FlightAware Approximate
02:06PM 22.1706 -152.7825 78° East  Level FlightAware Approximate
02:07PM 22.1960 -152.6492 78° East  Level FlightAware Approximate
02:08PM 22.2212 -152.5159 78° East  Level FlightAware Approximate
02:09PM 22.2464 -152.3824 78° East  Level FlightAware Approximate
02:10PM 22.2715 -152.2490 79° East  Level FlightAware Approximate
02:11PM 22.2964 -152.1155 79° East  Level FlightAware Approximate
02:12PM 22.3212 -151.9820 79° East  Level FlightAware Approximate
02:13PM 22.3492 -151.8513 62° Northeast  Level FlightAware Approximate
02:14PM 22.4088 -151.7312 62° Northeast  Level FlightAware Approximate
02:14PM 22.3500 -151.8833 62° Northeast 452 520 37,000  Level Oakland Oceanic (ODAPS)
02:15PM 22.4683 -151.6110 62° Northeast  Level FlightAware Approximate
02:16PM 22.5277 -151.4907 62° Northeast  Level FlightAware Approximate
02:17PM 22.5870 -151.3703 62° Northeast  Level FlightAware Approximate
02:18PM 22.6452 -151.2493 62° Northeast  Level FlightAware Approximate
02:19PM 22.7032 -151.1281 63° Northeast  Level FlightAware Approximate
02:20PM 22.8179 -150.9224 62° Northeast 452 520 37,000  Level FlightAware Transoceanic
02:21PM 22.8760 -150.8018 62° Northeast 452 520 37,000  Level FlightAware Transoceanic
02:22PM 22.9340 -150.6811 62° Northeast 452 520 37,000  Level FlightAware Transoceanic
02:23PM 22.9919 -150.5603 63° Northeast 452 520 37,000  Level FlightAware Transoceanic
02:24PM 23.0498 -150.4395 63° Northeast 452 520 37,000  Level FlightAware Transoceanic
02:25PM 23.1075 -150.3185 63° Northeast 452 520 37,000  Level FlightAware Transoceanic
02:26PM 23.1651 -150.1974 63° Northeast 452 520 37,000  Level FlightAware Transoceanic
02:27PM 23.2227 -150.0762 63° Northeast 452 520 37,000  Level FlightAware Transoceanic
02:28PM 23.2801 -149.9549 63° Northeast 452 520 37,000  Level FlightAware Transoceanic
02:29PM 23.3375 -149.8335 63° Northeast 452 520 37,000  Level FlightAware Transoceanic
02:30PM 23.3947 -149.7119 63° Northeast 452 520 37,000  Level FlightAware Transoceanic
02:31PM 23.4519 -149.5903 63° Northeast 452 520 37,000  Level FlightAware Transoceanic
02:32PM 23.5089 -149.4686 63° Northeast 452 520 37,000  Level FlightAware Transoceanic
02:33PM 23.5659 -149.3468 63° Northeast 452 520 37,000  Level FlightAware Transoceanic
02:34PM 23.6228 -149.2248 63° Northeast 452 520 37,000  Level FlightAware Transoceanic
02:35PM 23.6796 -149.1028 63° Northeast 452 520 37,000  Level FlightAware Transoceanic
02:36PM 23.7363 -148.9806 63° Northeast 452 520 37,000  Level FlightAware Transoceanic
02:37PM 23.7929 -148.8584 63° Northeast 452 520 37,000  Level FlightAware Transoceanic
02:38PM 23.8494 -148.7360 63° Northeast 452 520 37,000  Level FlightAware Transoceanic
02:39PM 23.9058 -148.6136 63° Northeast 452 520 37,000  Level FlightAware Transoceanic
02:40PM 23.9621 -148.4910 63° Northeast 452 520 37,000  Level FlightAware Transoceanic
02:41PM 24.0183 -148.3683 63° Northeast 452 520 37,000  Level FlightAware Transoceanic
02:42PM 24.0744 -148.2455 63° Northeast 452 520 37,000  Level FlightAware Transoceanic
02:43PM 24.1304 -148.1226 63° Northeast 452 520 37,000  Level FlightAware Transoceanic
02:44PM 24.1863 -147.9996 64° Northeast 452 520 37,000  Level FlightAware Transoceanic
02:45PM 24.2421 -147.8765 64° Northeast 452 520 37,000  Level FlightAware Transoceanic
02:46PM 24.2978 -147.7533 64° Northeast 452 520 37,000  Level FlightAware Transoceanic
02:47PM 24.3535 -147.6299 64° Northeast 452 520 37,000  Level FlightAware Transoceanic
02:48PM 24.4090 -147.5065 64° Northeast 452 520 37,000  Level FlightAware Transoceanic
02:49PM 24.4644 -147.3830 64° Northeast 452 520 37,000  Level FlightAware Transoceanic
02:50PM 24.5197 -147.2593 64° Northeast 452 520 37,000  Level FlightAware Transoceanic
02:51PM 24.5749 -147.1355 64° Northeast 452 520 37,000  Level FlightAware Transoceanic
02:52PM 24.6300 -147.0117 64° Northeast 452 520 37,000  Level FlightAware Transoceanic
02:53PM 24.6850 -146.8877 64° Northeast 452 520 37,000  Level FlightAware Transoceanic
02:54PM 24.7399 -146.7636 64° Northeast 452 520 37,000  Level FlightAware Transoceanic
02:55PM 24.7947 -146.6394 64° Northeast 452 520 37,000  Level FlightAware Transoceanic
02:56PM 24.8494 -146.5151 64° Northeast 452 520 37,000  Level FlightAware Transoceanic
02:57PM 24.9040 -146.3907 64° Northeast 452 520 37,000  Level FlightAware Transoceanic
02:58PM 24.9585 -146.2662 64° Northeast 452 520 37,000  Level FlightAware Transoceanic
02:59PM 25.0129 -146.1415 64° Northeast 452 520 37,000  Level FlightAware Transoceanic
03:00PM 25.0672 -146.0168 64° Northeast 452 520 37,000  Level FlightAware Transoceanic
03:01PM 25.1214 -145.8919 64° Northeast 452 520 37,000  Level FlightAware Transoceanic
03:02PM 25.1755 -145.7669 64° Northeast 452 520 37,000  Level FlightAware Transoceanic
03:03PM 25.2295 -145.6419 65° Northeast 452 520 37,000  Level FlightAware Transoceanic
03:04PM 25.2833 -145.5167 65° Northeast 452 520 37,000  Level FlightAware Transoceanic
03:05PM 25.3390 -145.3863 65° Northeast 452 520 37,000 540 Level FlightAware Transoceanic
03:05PM 25.2833 -145.5167 65° Northeast 468 539 38,000  Climbing Oakland Oceanic (ODAPS)
03:06PM 25.3945 -145.2559 65° Northeast 452 520 37,000 -900 Descending FlightAware Transoceanic
03:07PM 25.4499 -145.1253 65° Northeast 452 520 37,000  Level FlightAware Transoceanic
03:08PM 25.5052 -144.9946 65° Northeast 452 520 37,000  Level FlightAware Transoceanic
03:09PM 25.5604 -144.8637 65° Northeast 452 520 37,000  Level FlightAware Transoceanic
03:10PM 25.6154 -144.7328 65° Northeast 452 520 37,000  Level FlightAware Transoceanic
03:11PM 25.6703 -144.6017 65° Northeast 452 520 37,000 480 Level FlightAware Transoceanic
03:12PM 25.7799 -144.3392 65° Northeast 468 539 38,000 480 Climbing FlightAware Transoceanic
03:13PM 25.8345 -144.2078 65° Northeast 468 539 38,000  Level FlightAware Transoceanic
03:14PM 25.8889 -144.0762 65° Northeast 468 539 38,000  Level FlightAware Transoceanic
03:15PM 25.9433 -143.9446 65° Northeast 468 539 38,000  Level FlightAware Transoceanic
03:16PM 25.9975 -143.8128 65° Northeast 468 539 38,000  Level FlightAware Transoceanic
03:17PM 26.0516 -143.6809 65° Northeast 468 539 38,000  Level FlightAware Transoceanic
03:18PM 26.1056 -143.5488 66° East 468 539 38,000  Level FlightAware Transoceanic
03:19PM 26.1595 -143.4167 66° East 468 539 38,000  Level FlightAware Transoceanic
03:20PM 26.2132 -143.2844 66° East 468 539 38,000  Level FlightAware Transoceanic
03:21PM 26.2669 -143.1520 66° East 468 539 38,000  Level FlightAware Transoceanic
03:22PM 26.3204 -143.0195 66° East 468 539 38,000  Level FlightAware Transoceanic
03:23PM 26.3738 -142.8868 66° East 468 539 38,000  Level FlightAware Transoceanic
03:24PM 26.4270 -142.7540 66° East 468 539 38,000  Level FlightAware Transoceanic
03:25PM 26.4802 -142.6212 66° East 468 539 38,000  Level FlightAware Transoceanic
03:26PM 26.5332 -142.4881 66° East 468 539 38,000  Level FlightAware Transoceanic
03:27PM 26.5861 -142.3550 66° East 468 539 38,000  Level FlightAware Transoceanic
03:28PM 26.6389 -142.2217 66° East 468 539 38,000  Level FlightAware Transoceanic
03:29PM 26.6915 -142.0884 66° East 468 539 38,000  Level FlightAware Transoceanic
03:30PM 26.7440 -141.9548 66° East 468 539 38,000  Level FlightAware Transoceanic
03:31PM 26.7964 -141.8212 66° East 468 539 38,000  Level FlightAware Transoceanic
03:32PM 26.8487 -141.6875 66° East 468 539 38,000  Level FlightAware Transoceanic
03:33PM 26.9008 -141.5536 66° East 468 539 38,000  Level FlightAware Transoceanic
03:34PM 26.9529 -141.4196 67° East 468 539 38,000  Level FlightAware Transoceanic
03:35PM 27.0047 -141.2855 67° East 468 539 38,000  Level FlightAware Transoceanic
03:36PM 27.0565 -141.1512 67° East 468 539 38,000  Level FlightAware Transoceanic
03:37PM 27.1082 -141.0168 67° East 468 539 38,000  Level FlightAware Transoceanic
03:38PM 27.1597 -140.8824 67° East 468 539 38,000  Level FlightAware Transoceanic
03:39PM 27.2110 -140.7477 67° East 468 539 38,000  Level FlightAware Transoceanic
03:40PM 27.2623 -140.6130 67° East 468 539 38,000  Level FlightAware Transoceanic
03:41PM 27.3134 -140.4781 67° East 468 539 38,000  Level FlightAware Transoceanic
03:42PM 27.3644 -140.3431 67° East 468 539 38,000  Level FlightAware Transoceanic
03:43PM 27.4153 -140.2080 67° East 468 539 38,000  Level FlightAware Transoceanic
03:44PM 27.4660 -140.0728 67° East 468 539 38,000  Level FlightAware Transoceanic
03:45PM 27.5166 -139.9374 67° East 468 539 38,000  Level FlightAware Transoceanic
03:46PM 27.5671 -139.8019 67° East 468 539 38,000  Level FlightAware Transoceanic
03:47PM 27.6174 -139.6663 67° East 468 539 38,000  Level FlightAware Transoceanic
03:48PM 27.6676 -139.5306 67° East 468 539 38,000  Level FlightAware Transoceanic
03:49PM 27.7177 -139.3947 67° East 468 539 38,000  Level FlightAware Transoceanic
03:50PM 27.7676 -139.2587 67° East 468 539 38,000  Level FlightAware Transoceanic
03:51PM 27.8174 -139.1226 68° East 468 539 38,000  Level FlightAware Transoceanic
03:52PM 27.8671 -138.9864 68° East 468 539 38,000  Level FlightAware Transoceanic
03:53PM 27.9167 -138.8500 68° East 468 539 38,000  Level FlightAware Transoceanic
03:54PM 27.9667 -138.7117 68° East 468 539 38,000  Level FlightAware Transoceanic
03:55PM 28.0166 -138.5733 68° East 468 539 38,000  Level FlightAware Transoceanic
03:56PM 28.0664 -138.4347 68° East 468 539 38,000  Level FlightAware Transoceanic
03:56PM 27.9167 -138.8500 68° East 485 558 38,000  Level Oakland Oceanic (ODAPS)
03:57PM 28.1160 -138.2960 68° East 468 539 38,000  Level FlightAware Transoceanic
03:58PM 28.1655 -138.1572 68° East 468 539 38,000  Level FlightAware Transoceanic
03:59PM 28.2148 -138.0183 68° East 468 539 38,000  Level FlightAware Transoceanic
04:00PM 28.2640 -137.8792 68° East 468 539 38,000  Level FlightAware Transoceanic
04:01PM 28.3131 -137.7400 68° East 468 539 38,000  Level FlightAware Transoceanic
04:02PM 28.3209 -137.7177 68° East 485 558 38,000  Level FlightAware Transoceanic
04:03PM 28.3708 -137.5756 68° East 485 558 38,000  Level FlightAware Transoceanic
04:04PM 28.4205 -137.4333 68° East 485 558 38,000  Level FlightAware Transoceanic
04:05PM 28.4701 -137.2909 68° East 485 558 38,000  Level FlightAware Transoceanic
04:06PM 28.5195 -137.1483 69° East 485 558 38,000  Level FlightAware Transoceanic
04:07PM 28.5688 -137.0057 69° East 485 558 38,000  Level FlightAware Transoceanic
04:08PM 28.6179 -136.8629 69° East 485 558 38,000  Level FlightAware Transoceanic
04:09PM 28.6669 -136.7199 69° East 485 558 38,000  Level FlightAware Transoceanic
04:10PM 28.7157 -136.5769 69° East 485 558 38,000  Level FlightAware Transoceanic
04:11PM 28.7644 -136.4337 69° East 485 558 38,000  Level FlightAware Transoceanic
04:12PM 28.8129 -136.2903 69° East 485 558 38,000  Level FlightAware Transoceanic
04:13PM 28.8613 -136.1468 69° East 485 558 38,000  Level FlightAware Transoceanic
04:14PM 28.9095 -136.0032 69° East 485 558 38,000  Level FlightAware Transoceanic
04:15PM 28.9576 -135.8595 69° East 485 558 38,000  Level FlightAware Transoceanic
04:16PM 29.0055 -135.7156 69° East 485 558 38,000  Level FlightAware Transoceanic
04:17PM 29.0533 -135.5716 69° East 485 558 38,000  Level FlightAware Transoceanic
04:18PM 29.1009 -135.4275 69° East 485 558 38,000  Level FlightAware Transoceanic
04:19PM 29.1483 -135.2832 69° East 485 558 38,000  Level FlightAware Transoceanic
04:20PM 29.1956 -135.1388 69° East 485 558 38,000  Level FlightAware Transoceanic
04:21PM 29.2428 -134.9943 70° East 485 558 38,000  Level FlightAware Transoceanic
04:22PM 29.2898 -134.8496 70° East 485 558 38,000  Level FlightAware Transoceanic
04:23PM 29.3366 -134.7048 70° East 485 558 38,000  Level FlightAware Transoceanic
04:24PM 29.3833 -134.5598 70° East 485 558 38,000  Level FlightAware Transoceanic
04:25PM 29.4298 -134.4148 70° East 485 558 38,000  Level FlightAware Transoceanic
04:26PM 29.4762 -134.2696 70° East 485 558 38,000  Level FlightAware Transoceanic
04:27PM 29.5224 -134.1242 70° East 485 558 38,000  Level FlightAware Transoceanic
04:28PM 29.5684 -133.9788 70° East 485 558 38,000  Level FlightAware Transoceanic
04:29PM 29.6143 -133.8332 70° East 485 558 38,000  Level FlightAware Transoceanic
04:30PM 29.6600 -133.6874 70° East 485 558 38,000  Level FlightAware Transoceanic
04:31PM 29.7056 -133.5416 70° East 485 558 38,000  Level FlightAware Transoceanic
04:32PM 29.7510 -133.3956 70° East 485 558 38,000  Level FlightAware Transoceanic
04:33PM 29.7963 -133.2495 70° East 485 558 38,000  Level FlightAware Transoceanic
04:34PM 29.8414 -133.1032 70° East 485 558 38,000  Level FlightAware Transoceanic
04:35PM 29.8863 -132.9568 71° East 485 558 38,000  Level FlightAware Transoceanic
04:36PM 29.9311 -132.8103 71° East 485 558 38,000  Level FlightAware Transoceanic
04:37PM 29.9757 -132.6636 71° East 485 558 38,000  Level FlightAware Transoceanic
04:38PM 30.0201 -132.5168 71° East 485 558 38,000  Level FlightAware Transoceanic
04:39PM 30.0644 -132.3699 71° East 485 558 38,000  Level FlightAware Transoceanic
04:40PM 30.1085 -132.2229 71° East 485 558 38,000  Level FlightAware Transoceanic
04:41PM 30.1525 -132.0757 71° East 485 558 38,000  Level FlightAware Transoceanic
04:42PM 30.1963 -131.9283 71° East 485 558 38,000  Level FlightAware Transoceanic
04:43PM 30.2399 -131.7809 71° East 485 558 38,000  Level FlightAware Transoceanic
04:44PM 30.2833 -131.6333 71° East 485 558 38,000  Level FlightAware Transoceanic
04:45PM 30.3269 -131.4858 71° East 485 558 38,000  Level FlightAware Transoceanic
04:46PM 30.3703 -131.3381 71° East 485 558 38,000  Level FlightAware Transoceanic
04:47PM 30.4135 -131.1903 71° East 485 558 38,000  Level FlightAware Transoceanic
04:48PM 30.4566 -131.0424 71° East 485 558 38,000  Level FlightAware Transoceanic
04:48PM 30.2833 -131.6333 71° East 485 558 38,000  Level Oakland Oceanic (ODAPS)
04:49PM 30.4995 -130.8943 71° East 485 558 38,000  Level FlightAware Transoceanic
04:50PM 30.5422 -130.7461 72° East 485 558 38,000  Level FlightAware Transoceanic
04:51PM 30.5848 -130.5978 72° East 485 558 38,000  Level FlightAware Transoceanic
04:52PM 30.6272 -130.4494 72° East 485 558 38,000  Level FlightAware Transoceanic
04:53PM 30.6694 -130.3008 72° East 485 558 38,000  Level FlightAware Transoceanic
04:54PM 30.7114 -130.1521 72° East 485 558 38,000  Level FlightAware Transoceanic
04:55PM 30.7533 -130.0032 72° East 485 558 38,000  Level FlightAware Transoceanic
04:56PM 30.7950 -129.8543 72° East 485 558 38,000  Level FlightAware Transoceanic
04:57PM 30.8366 -129.7052 72° East 485 558 38,000  Level FlightAware Transoceanic
04:58PM 30.8780 -129.5559 72° East 485 558 38,000  Level FlightAware Transoceanic
04:59PM 30.9192 -129.4066 72° East 485 558 38,000  Level FlightAware Transoceanic
05:00PM 30.9602 -129.2571 72° East 485 558 38,000  Level FlightAware Transoceanic
05:01PM 31.0010 -129.1075 72° East 485 558 38,000  Level FlightAware Transoceanic
05:02PM 31.0417 -128.9577 72° East 485 558 38,000  Level FlightAware Transoceanic
05:03PM 31.0822 -128.8079 73° East 485 558 38,000  Level FlightAware Transoceanic
05:04PM 31.1226 -128.6579 73° East 485 558 38,000  Level FlightAware Transoceanic
05:05PM 31.1627 -128.5078 73° East 485 558 38,000  Level FlightAware Transoceanic
05:06PM 31.2027 -128.3575 73° East 485 558 38,000  Level FlightAware Transoceanic
05:07PM 31.2425 -128.2071 73° East 485 558 38,000  Level FlightAware Transoceanic
05:08PM 31.2822 -128.0566 73° East 485 558 38,000  Level FlightAware Transoceanic
05:09PM 31.3217 -127.9060 73° East 485 558 38,000  Level FlightAware Transoceanic
05:10PM 31.3609 -127.7552 73° East 485 558 38,000  Level FlightAware Transoceanic
05:11PM 31.4001 -127.6043 73° East 485 558 38,000  Level FlightAware Transoceanic
05:12PM 31.4390 -127.4533 73° East 485 558 38,000  Level FlightAware Transoceanic
05:13PM 31.4778 -127.3022 73° East 485 558 38,000  Level FlightAware Transoceanic
05:14PM 31.5163 -127.1509 73° East 485 558 38,000  Level FlightAware Transoceanic
05:15PM 31.5547 -126.9996 73° East 485 558 38,000  Level FlightAware Transoceanic
05:16PM 31.5930 -126.8481 74° East 485 558 38,000  Level FlightAware Transoceanic
05:17PM 31.6310 -126.6964 74° East 485 558 38,000  Level FlightAware Transoceanic
05:18PM 31.6689 -126.5447 74° East 485 558 38,000  Level FlightAware Transoceanic
05:19PM 31.7066 -126.3928 74° East 485 558 38,000  Level FlightAware Transoceanic
05:20PM 31.7441 -126.2408 74° East 485 558 38,000  Level FlightAware Transoceanic
05:21PM 31.7814 -126.0887 74° East 485 558 38,000  Level FlightAware Transoceanic
05:22PM 31.8185 -125.9364 74° East 485 558 38,000  Level FlightAware Transoceanic
05:23PM 31.8555 -125.7840 74° East 485 558 38,000  Level FlightAware Transoceanic
05:24PM 31.8923 -125.6316 74° East 485 558 38,000  Level FlightAware Transoceanic
05:25PM 31.9289 -125.4789 74° East 485 558 38,000  Level FlightAware Transoceanic
05:26PM 31.9653 -125.3262 74° East 485 558 38,000  Level FlightAware Transoceanic
05:27PM 32.0015 -125.1733 74° East 485 558 38,000  Level FlightAware Transoceanic
05:28PM 32.0376 -125.0204 75° East 485 558 38,000  Level FlightAware Transoceanic
05:29PM 32.0734 -124.8673 75° East 485 558 38,000  Level FlightAware Transoceanic
05:30PM 32.1091 -124.7141 75° East 485 558 38,000  Level FlightAware Transoceanic
05:31PM 32.1446 -124.5607 75° East 485 558 38,000  Level FlightAware Transoceanic
05:32PM 32.1799 -124.4073 75° East 485 558 38,000  Level FlightAware Transoceanic
05:33PM 32.2151 -124.2537 75° East 485 558 38,000  Level FlightAware Transoceanic
05:34PM 32.2500 -124.1000 77° East 485 558 38,000  Level FlightAware Transoceanic
05:35PM 32.2815 -123.9432 77° East 485 558 38,000  Level FlightAware Transoceanic
05:36PM 32.3129 -123.7862 77° East 485 558 38,000  Level FlightAware Transoceanic
05:37PM 32.3440 -123.6292 77° East 485 558 38,000  Level FlightAware Transoceanic
05:37PM 32.3008 -123.7600 68° East 480 552 38,000  Level Los Angeles Center
05:38PM 32.3750 -123.4721 77° East 485 558 38,000  Level FlightAware Transoceanic
05:38PM 32.3358 -123.6094 75° East 477 549 38,000  Level Los Angeles Center
05:39PM 32.4057 -123.3148 77° East 485 558 38,000  Level FlightAware Transoceanic
05:39PM 32.3944 -123.4317 69° East 488 562 38,000  Level Los Angeles Center
05:40PM 32.4363 -123.1575 77° East 485 558 38,000  Level FlightAware Transoceanic
05:40PM 32.4567 -123.2931 62° Northeast 482 555 38,000  Level Los Angeles Center
05:41PM 32.4833 -123.0197 68° East  Level Estimated
05:41PM 32.5142 -123.1506 64° Northeast 480 552 38,000  Level Los Angeles Center
05:42PM 32.5301 -122.8818 68° East  Level Estimated
05:42PM 32.5733 -123.0103 63° Northeast 478 550 38,000  Level Los Angeles Center
05:43PM 32.6317 -122.8689 64° Northeast 478 550 38,000  Level Los Angeles Center
05:44PM 32.6900 -122.7264 64° Northeast 480 552 38,000  Level Los Angeles Center
05:45PM 32.7606 -122.5578 64° Northeast 478 550 38,000  Level Los Angeles Center
05:46PM 32.8156 -122.4139 66° East 477 549 38,000  Level Los Angeles Center
05:47PM 32.8736 -122.2742 64° Northeast 474 545 38,000  Level Los Angeles Center
05:48PM 32.9306 -122.1328 64° Northeast 474 545 38,000  Level Los Angeles Center
05:49PM 32.9914 -122.0028 61° Northeast 466 536 38,000  Level Los Angeles Center
05:50PM 33.0581 -121.8333 65° Northeast 471 542 38,000  Level Los Angeles Center
05:51PM 33.1133 -121.6917 65° Northeast 473 544 38,000  Level Los Angeles Center
05:52PM 33.1692 -121.5517 64° Northeast 472 543 38,000  Level Los Angeles Center
05:53PM 33.2233 -121.4111 65° Northeast 470 541 38,000  Level Los Angeles Center
05:55PM 33.2789 -121.2706 65° Northeast 470 541 38,000  Level Los Angeles Center
05:56PM 33.3444 -121.1011 65° Northeast 470 541 38,000 -240 Level Los Angeles Center
05:57PM 33.4103 -120.9314 65° Northeast 471 542 37,500 -1,020 Descending Los Angeles Center
05:58PM 33.4644 -120.7886 66° East 472 543 36,000 -1,800 Descending Los Angeles Center
05:59PM 33.5172 -120.6508 65° Northeast 461 531 33,800 -2,400 Descending Los Angeles Center
06:00PM 33.5708 -120.5117 65° Northeast 463 533 31,100 -2,580 Descending Los Angeles Center
06:01PM 33.6228 -120.3733 66° East 461 531 28,500 -2,340 Descending Los Angeles Center
06:02PM 33.6942 -120.1858 65° Northeast 445 512 25,800 -2,040 Descending Los Angeles Center
06:03PM 33.7411 -120.0597 66° East 423 487 23,900 -1,980 Descending Los Angeles Center
06:04PM 33.7894 -119.9333 65° Northeast 405 466 21,800 -2,040 Descending Los Angeles Center
06:05PM 33.8333 -119.8144 66° East 392 451 19,800 -1,380 Descending Los Angeles Center
06:06PM 33.8756 -119.7003 66° East 376 433 19,000 -420 Descending Los Angeles Center
06:07PM 33.9175 -119.5875 66° East 371 427 19,000 -540 Level Los Angeles Center
06:08PM 33.9603 -119.4733 66° East 372 428 17,900 -1,740 Descending Los Angeles Center
06:09PM 34.0092 -119.3422 66° East 359 413 15,500 -2,100 Descending Los Angeles Center
06:10PM 34.0486 -119.2361 66° East 348 400 13,600 -1,920 Descending Los Angeles Center
06:11PM 34.0856 -119.1325 67° East 337 388 11,600 -1,260 Descending Los Angeles Center
06:12PM 34.1106 -119.0319 73° East 316 364 11,000 -300 Descending Los Angeles Center
06:13PM 34.0908 -118.9372 104° East 292 336 11,000 -300 Level Los Angeles Center
06:14PM 34.0764 -118.8394 100° East 298 343 10,400 -540 Descending Los Angeles Center
06:15PM 34.0575 -118.7336 102° East 289 333 10,000 -300 Descending Los Angeles Center
06:16PM 34.0394 -118.6311 102° East 290 334 9,900 -780 Descending Los Angeles Center
06:18PM 34.0247 -118.5369 101° East 286 329 8,500 -1,140 Descending Los Angeles Center
06:19PM 34.0106 -118.4517 101° East 259 298 7,600 -1,080 Descending Los Angeles Center
06:20PM 34.0231 -118.3753 79° East 241 277 6,300 -1,440 Descending Los Angeles Center
06:21PM 34.0361 -118.2969 79° East 239 275 4,700 -1,080 Descending Los Angeles Center
06:22PM 34.0494 -118.2258 77° East 224 258 4,100 -720 Descending Los Angeles Center
06:23PM 34.0242 -118.1878 129° Southeast 192 221 3,300 -780 Descending Los Angeles Center